Latest Weather Observations for Warruwi

IDD60801

Issued at 6:01 pm CST Friday 20 October 2017 (issued every 30 minutes, with the page automatically refreshed every 10 minutes)

About weather observations | Map of weather stations | Latest weather observations for NT | Other Formats
Station Details ID: 014401 Name: WARRUWI AIRPORT Lat: -11.65 Lon: 133.38 Height: 19.2 m
Data from the previous 72 hours. | See also: Recent months at Warruwi
Date/Time
CST
Temp
°C
App
Temp
°C
Dew
Point
°C
Rel
Hum
%
Delta-T
°C
Wind Press
QNH
hPa
Press
MSL
hPa
Rain since
9am
mm
Dir  Spd
km/h
Gust
km/h
Spd
kts
Gust
kts
20/06:00pm 29.6 32.2 22.6 66 4.8 ENE 13 20 7 11 1009.8 1009.6 0.0
20/05:30pm 30.2 32.1 21.3 59 6.0 NE 13 24 7 13 1009.7 1009.5 0.0
20/05:00pm 30.8 31.2 19.8 52 7.2 NE 17 26 9 14 1009.6 1009.4 0.0
20/04:30pm 31.7 32.2 19.3 47 8.1 ENE 15 26 8 14 1009.7 1009.5 0.0
20/04:00pm 32.2 32.6 19.1 45 8.6 ENE 15 28 8 15 1009.9 1009.7 0.0
20/03:30pm 32.5 32.9 19.0 44 8.8 NE 15 24 8 13 1010.3 1010.1 0.0
20/03:00pm 32.1 31.6 17.9 42 9.1 NE 17 26 9 14 1010.7 1010.5 0.0
20/02:30pm 32.0 34.0 21.5 53 7.1 ENE 13 20 7 11 1010.9 1010.7 0.0
20/02:00pm 31.8 34.5 22.2 56 6.5 NE 11 24 6 13 1011.2 1011.0 0.0
20/01:30pm 31.9 33.9 22.3 56 6.6 ENE 15 26 8 14 1011.6 1011.4 0.0
20/01:00pm 32.1 34.1 22.2 56 6.7 ENE 15 22 8 12 1011.9 1011.7 0.0
20/12:30pm 32.0 33.9 22.1 55 6.7 E 15 20 8 11 1012.3 1012.1 0.0
20/12:00pm 31.1 33.1 21.6 57 6.4 ENE 13 17 7 9 1012.7 1012.5 0.0
20/11:30am 31.1 33.7 21.9 58 6.2 E 11 17 6 9 1013.1 1012.9 0.0
20/11:00am 30.8 33.5 22.1 59 5.9 ENE 11 17 6 9 1013.2 1013.0 0.0
20/10:30am 30.9 33.2 21.4 57 6.4 E 11 15 6 8 1013.3 1013.1 0.0
20/10:00am 30.2 34.7 22.9 65 5.0 W 4 7 2 4 1013.4 1013.2 0.0
20/09:30am 28.9 32.7 22.4 68 4.4 WNW 6 7 3 4 1013.3 1013.1 0.0
20/09:00am 28.5 32.3 22.7 71 3.9 W 7 9 4 5 1013.2 1013.0 0.0
20/08:30am 28.3 32.3 22.8 72 3.7 SW 6 6 3 3 1013.1 1012.9 0.0
20/08:00am 28.5 32.9 23.4 74 3.5 SSW 6 7 3 4 1012.9 1012.7 0.0
20/07:30am 27.1 32.4 23.1 79 2.7 CALM 0 0 0 0 1012.5 1012.3 0.0
20/07:00am 26.2 32.1 24.1 88 1.4 CALM 0 0 0 0 1012.2 1012.0 0.0
20/06:30am 25.4 31.0 23.5 89 1.3 CALM 0 0 0 0 1011.7 1011.5 0.0
20/06:00am 25.3 30.7 23.2 88 1.4 CALM 0 0 0 0 1011.4 1011.2 0.0
20/05:30am 25.2 30.4 22.9 87 1.6 CALM 0 0 0 0 1011.0 1010.8 0.0
20/05:00am 25.2 30.4 22.9 87 1.6 CALM 0 0 0 0 1010.7 1010.5 0.0
20/04:30am 25.4 30.5 22.7 85 1.8 CALM 0 0 0 0 1010.6 1010.4 0.0
20/04:00am 25.7 31.0 23.0 85 1.8 CALM 0 2 0 1 1010.4 1010.2 0.0
20/03:30am 25.7 30.6 23.0 85 1.8 N 2 2 1 1 1010.4 1010.2 0.0
20/03:00am 25.9 31.2 23.0 84 2.0 CALM 0 4 0 2 1010.5 1010.3 0.0
20/02:30am 25.8 31.0 22.9 84 2.0 CALM 0 4 0 2 1010.5 1010.3 0.0
20/02:00am 26.1 31.3 22.8 82 2.2 CALM 0 0 0 0 1010.6 1010.4 0.0
20/01:30am 26.6 31.2 22.4 78 2.8 NNE 2 6 1 3 1010.8 1010.6 0.0
20/01:00am 27.3 31.4 22.3 74 3.4 NE 4 6 2 3 1011.0 1010.8 0.0
20/12:30am 27.5 31.7 22.4 73 3.4 NE 4 9 2 5 1011.2 1011.0 0.0
20/12:00am 27.8 31.7 22.5 73 3.6 NE 6 9 3 5 1011.5 1011.3 0.0
 
Date/Time
CST
Temp
°C
App
Temp
°C
Dew
Point
°C
Rel
Hum
%
Delta-T
°C
Wind Press
QNH
hPa
Press
MSL
hPa
Rain since
9am
mm
Dir  Spd
km/h
Gust
km/h
Spd
kts
Gust
kts
19/11:30pm 27.6 31.8 22.5 74 3.5 NE 4 9 2 5 1011.7 1011.5 0.0
19/11:00pm 27.6 31.8 22.5 74 3.5 NE 4 7 2 4 1011.7 1011.5 0.0
19/10:30pm 27.7 32.0 22.6 74 3.5 NNE 4 7 2 4 1011.6 1011.4 0.0
19/10:00pm 28.0 31.9 22.9 74 3.5 NE 7 13 4 7 1011.4 1011.2 0.0
19/09:30pm 28.0 32.1 22.9 74 3.5 NNE 6 13 3 7 1010.9 1010.7 0.0
19/09:00pm 28.0 32.0 22.7 73 3.6 NE 6 9 3 5 1010.5 1010.3 0.0
19/08:30pm 28.2 32.0 22.4 71 3.9 NE 6 9 3 5 1010.2 1010.0 0.0
19/08:00pm 28.4 31.9 21.9 68 4.4 NE 6 11 3 6 1009.9 1009.7 0.0
19/07:30pm 28.6 31.9 21.4 65 4.8 NNE 6 7 3 4 1009.4 1009.2 0.0
19/07:00pm 29.0 31.7 20.2 59 5.8 NE 6 13 3 7 1009.1 1008.9 0.0
19/06:30pm 29.7 30.9 18.2 50 7.4 NE 9 13 5 7 1008.5 1008.3 0.0
19/06:00pm 30.3 31.8 19.0 50 7.4 NNE 9 15 5 8 1008.1 1007.9 0.0
19/05:30pm 31.1 33.1 19.1 48 7.8 NNE 7 13 4 7 1007.9 1007.7 0.0
19/05:00pm 31.5 32.8 18.5 46 8.4 N 9 19 5 10 1007.7 1007.5 0.0
19/04:30pm 32.3 32.9 17.7 41 9.4 NNE 11 24 6 13 1007.7 1007.5 0.0
19/04:00pm 33.0 32.7 15.5 35 10.9 NNE 11 20 6 11 1007.6 1007.4 0.0
19/03:30pm 33.4 34.3 17.5 38 10.2 NE 9 17 5 9 1007.7 1007.5 0.0
19/03:00pm 33.2 33.8 18.6 42 9.5 E 13 17 7 9 1007.8 1007.6 0.0
19/02:30pm 32.4 34.0 20.0 48 8.2 E 11 17 6 9 1008.0 1007.8 0.0
19/02:00pm 32.8 34.8 20.0 47 8.5 E 9 13 5 7 1008.4 1008.2 0.0
19/01:30pm 32.1 34.1 20.7 51 7.6 E 11 19 6 10 1008.8 1008.6 0.0
19/01:00pm 31.8 34.7 22.5 58 6.4 ESE 11 17 6 9 1009.3 1009.1 0.0
19/12:30pm 31.4 33.7 22.1 57 6.3 E 13 19 7 10 1009.9 1009.7 0.0
19/12:00pm 31.7 35.4 23.2 60 5.9 E 9 15 5 8 1010.4 1010.2 0.0
19/11:30am 31.6 34.9 22.6 59 6.2 ESE 9 15 5 8 1010.7 1010.5 0.0
19/11:00am 31.5 34.9 23.3 61 5.7 ESE 11 17 6 9 1010.8 1010.6 0.0
19/10:30am 31.1 34.3 22.4 60 5.9 ESE 9 15 5 8 1011.0 1010.8 0.0
19/10:00am 30.8 34.0 22.4 61 5.7 E 9 15 5 8 1011.1 1010.9 0.0
19/09:30am 30.3 33.7 22.7 64 5.2 NNE 9 17 5 9 1011.2 1011.0 0.0
19/09:00am 30.2 33.9 22.6 63 5.2 NE 7 13 4 7 1011.1 1010.9 0.0
19/08:30am 30.0 33.9 22.9 65 4.9 ENE 7 11 4 6 1011.0 1010.8 0.0
19/08:00am 29.2 33.3 23.2 70 4.1 NNE 7 15 4 8 1010.8 1010.6 0.0
19/07:30am 28.9 33.6 23.3 72 3.8 NNE 4 7 2 4 1010.5 1010.3 0.0
19/07:00am 28.1 32.9 23.5 76 3.2 NE 4 7 2 4 1010.1 1009.9 0.0
19/06:30am 27.3 32.4 23.3 79 2.7 NE 2 6 1 3 1009.7 1009.5 0.0
19/06:00am 27.4 32.0 23.2 78 2.9 NE 4 6 2 3 1009.5 1009.3 0.0
19/05:30am 27.7 31.9 23.1 76 3.1 ENE 6 7 3 4 1009.3 1009.1 0.0
19/05:00am 27.9 32.1 23.1 75 3.3 NE 6 9 3 5 1008.9 1008.7 0.0
19/04:30am 28.3 32.4 23.0 73 3.6 NE 6 9 3 5 1008.5 1008.3 0.0
19/04:00am 28.4 32.1 22.6 71 3.9 E 7 11 4 6 1008.2 1008.0 0.0
19/03:30am 28.3 32.4 23.0 73 3.6 ENE 6 11 3 6 1008.1 1007.9 0.0
19/03:00am 28.0 32.1 22.9 74 3.5 ENE 6 9 3 5 1008.0 1007.8 0.0
19/02:30am 27.8 32.8 23.8 79 2.8 NE 4 9 2 5 1008.2 1008.0 0.0
19/02:00am 28.1 33.1 24.5 81 2.5 NE 6 11 3 6 1008.4 1008.2 0.0
19/01:30am 28.2 32.2 24.4 80 2.6 E 11 19 6 10 1008.8 1008.6 0.0
19/01:00am 28.3 32.1 24.7 81 2.5 ENE 13 20 7 11 1009.3 1009.1 0.0
19/12:30am 28.2 32.1 24.8 82 2.4 ENE 13 20 7 11 1009.5 1009.3 0.0
19/12:00am 28.3 32.2 24.9 82 2.4 ENE 13 24 7 13 1009.8 1009.6 0.0
 
Date/Time
CST
Temp
°C
App
Temp
°C
Dew
Point
°C
Rel
Hum
%
Delta-T
°C
Wind Press
QNH
hPa
Press
MSL
hPa
Rain since
9am
mm
Dir  Spd
km/h
Gust
km/h
Spd
kts
Gust
kts
18/11:30pm 28.6 32.7 24.6 79 2.8 ENE 11 17 6 9 1010.2 1010.0 0.0
18/11:00pm 28.6 33.5 25.2 82 2.4 ENE 9 17 5 9 1010.4 1010.2 0.0
18/10:30pm 28.3 33.0 24.9 82 2.4 NNE 9 17 5 9 1009.3 1009.1 0.0
18/10:00pm 28.2 33.2 24.8 82 2.4 N 7 17 4 9 1009.2 1009.0 0.0
18/09:30pm 28.3 33.4 24.7 81 2.5 NNE 6 7 3 4 1009.4 1009.2 0.0
18/09:00pm 28.4 34.5 25.0 82 2.4 NNE 2 6 1 3 1009.6 1009.4 0.0
18/08:30pm 28.4 34.0 24.8 81 2.5 NE 4 6 2 3 1009.5 1009.3 0.0
18/08:00pm 28.5 34.4 24.7 80 2.7 NE 2 6 1 3 1009.1 1008.9 0.0
18/07:30pm 28.5 33.6 24.7 80 2.7 N 6 9 3 5 1008.5 1008.3 0.0
18/07:00pm 28.6 34.2 24.8 80 2.7 N 4 9 2 5 1007.9 1007.7 0.0
18/06:30pm 28.7 33.8 24.7 79 2.8 N 6 13 3 7 1007.5 1007.3 0.0
18/06:00pm 29.1 34.0 24.7 77 3.1 NNE 7 13 4 7 1007.3 1007.1 0.0
18/05:30pm 29.5 33.7 24.8 76 3.3 N 11 19 6 10 1006.9 1006.7 0.0
18/05:00pm 29.9 34.3 25.0 75 3.4 NNE 11 17 6 9 1006.5 1006.3 0.0
18/04:30pm 29.7 33.8 24.6 74 3.6 NNE 11 17 6 9 1006.5 1006.3 0.0
18/04:00pm 30.1 34.5 24.5 72 3.9 NNE 9 19 5 10 1006.2 1006.0 0.0
18/03:30pm 30.9 34.6 23.3 64 5.2 NNE 9 17 5 9 1006.3 1006.1 0.0
18/03:00pm 31.0 34.9 23.6 64 5.1 NE 9 17 5 9 1006.7 1006.5 0.0
18/02:30pm 31.0 35.0 24.4 68 4.6 E 11 15 6 8 1007.3 1007.1 0.0
18/02:00pm 31.3 35.0 23.9 64 5.1 E 11 15 6 8 1007.6 1007.4 0.0
18/01:30pm 31.4 34.6 24.3 66 5.0 E 15 20 8 11 1008.0 1007.8 0.0
18/01:00pm 31.8 35.0 23.1 60 6.0 ENE 11 17 6 9 1008.3 1008.1 0.0
18/12:30pm 31.5 35.1 24.4 66 5.0 ESE 13 17 7 9 1009.0 1008.8 0.0
18/12:00pm 30.9 35.0 24.5 68 4.5 E 11 17 6 9 1009.4 1009.2 0.0
18/11:30am 30.6 34.2 24.3 69 4.4 E 13 19 7 10 1010.1 1009.9 0.0
18/11:00am 30.7 34.7 24.4 69 4.4 E 11 15 6 8 1010.4 1010.2 0.0
18/10:30am 30.1 34.3 24.7 73 3.8 E 11 17 6 9 1010.6 1010.4 0.0
18/10:00am 30.2 34.7 24.6 72 3.9 E 9 17 5 9 1010.8 1010.6 0.0
18/09:30am 30.1 34.0 23.0 65 4.9 E 7 11 4 6 1010.8 1010.6 0.0
18/09:00am 29.2 34.5 25.2 79 2.8 E 7 11 4 6 1010.9 1010.7 5.8
18/08:30am 28.3 33.1 24.5 80 2.6 ESE 7 9 4 5 1010.8 1010.6 5.8
18/08:00am 27.0 31.9 24.3 85 1.9 SE 6 7 3 4 1010.8 1010.6 5.8
18/07:30am 26.4 31.2 24.2 88 1.5 SSW 6 9 3 5 1010.5 1010.3 5.8
18/07:00am 26.1 31.6 24.7 92 1.0 S 4 6 2 3 1009.9 1009.7 5.8
18/06:30am 25.6 31.7 24.4 93 0.8 CALM 0 0 0 0 1009.5 1009.3 5.8
18/06:00am 25.5 31.5 24.3 93 0.8 CALM 0 0 0 0 1009.3 1009.1 5.8
18/05:30am 25.6 31.7 24.4 93 0.8 CALM 0 0 0 0 1009.0 1008.8 5.8
18/05:00am 25.6 31.1 24.0 91 1.1 NE 2 2 1 1 1008.3 1008.1 5.8
18/04:30am 25.7 30.8 24.1 91 1.1 NE 4 6 2 3 1007.8 1007.6 5.8
18/04:00am 25.4 30.8 23.8 91 1.1 ENE 2 6 1 3 1007.7 1007.5 5.8
18/03:30am 25.5 31.1 23.6 89 1.3 CALM 0 0 0 0 1007.6 1007.4 5.8
18/03:00am 25.9 31.6 23.8 88 1.4 CALM 0 4 0 2 1007.8 1007.6 5.8
18/02:30am 26.0 30.8 23.5 86 1.7 SSE 4 6 2 3 1008.0 1007.8 5.8
18/02:00am 26.1 31.7 23.6 86 1.7 CALM 0 2 0 1 1008.4 1008.2 5.8
18/01:30am 26.3 30.7 23.4 84 2.0 SSE 6 9 3 5 1008.6 1008.4 5.8
18/01:00am 26.1 30.8 23.4 85 1.8 SE 4 9 2 5 1008.9 1008.7 5.8
18/12:30am 26.0 31.2 23.5 86 1.7 SE 2 6 1 3 1009.0 1008.8 5.8
18/12:00am 25.9 30.4 23.6 87 1.6 SE 6 6 3 3 1009.4 1009.2 5.8
 
Date/Time
CST
Temp
°C
App
Temp
°C
Dew
Point
°C
Rel
Hum
%
Delta-T
°C
Wind Press
QNH
hPa
Press
MSL
hPa
Rain since
9am
mm
Dir  Spd
km/h
Gust
km/h
Spd
kts
Gust
kts
17/11:30pm 25.7 28.8 23.6 88 1.4 SE 13 19 7 10 1009.6 1009.4 5.8
17/11:00pm 26.9 31.7 24.4 86 1.7 SE 7 13 4 7 1009.4 1009.2 5.8
17/10:30pm 26.6 32.1 24.1 86 1.7 NW 2 6 1 3 1008.5 1008.3 5.8
17/10:00pm 26.4 32.0 24.2 88 1.5 W 2 6 1 3 1007.9 1007.7 5.8
17/09:30pm 25.8 30.5 23.3 86 1.7 WNW 4 6 2 3 1007.7 1007.5 5.8
17/09:00pm 25.2 30.4 24.2 94 0.7 W 4 9 2 5 1007.2 1007.0 5.8
17/08:30pm 24.4 28.9 23.7 96 0.5 N 6 11 3 6 1006.9 1006.7 5.8
17/08:00pm 23.2 26.9 22.2 94 0.7 NW 6 13 3 7 1007.2 1007.0 5.6
17/07:30pm 23.1 27.1 22.1 94 0.7 NNW 4 9 2 5 1007.6 1007.4 5.6
17/07:00pm 23.0 26.4 22.0 94 0.7 SSE 7 9 4 5 1008.4 1008.2 5.4
17/06:30pm 23.0 23.7 21.5 91 1.0 SSE 20 33 11 18 1008.2 1008.0 1.4
17/06:29pm 23.0 23.2 21.3 90 1.1 SSE 22 43 12 23 1008.2 1008.0 0.6
17/06:12pm 28.0 30.0 20.8 65 4.8 ENE 11 50 6 27 1007.9 1007.7 0.0

Other Formats:

Comma delimited format used in spreadsheet applications
http://www.bom.gov.au/fwo/IDD60801/IDD60801.94139.axf

JavaScript Object Notation format (JSON) in row-major order
http://www.bom.gov.au/fwo/IDD60801/IDD60801.94139.json